Union Grove, Wisconsin
Current Conditions -  °F | °C
As of 11:53 AM on Friday 31 Oct 2014 (Local Time) from KENW Reporting Station
Overcast Overcast  
Wind Chill: 26°   Ceiling: 3600
Heat Index: 38°   Visibility: 10mi
Dew Point: 24°   Wind: 29mph
Humidity: 57%   Direction: 350°N
Pressure: 30.19"   Gusts: 40mph
Location:  42.69°N, 88.05°W
Report Text: KENW 311653Z 35025G35KT 10SM OVC036 03/M04 A3019 RMK AO2 PK WND 36037/1613 SLP229 T00331044
Loading
Personal Weather Stations






























Interactive Weather Map
Tropical Storm Tracking
New forecast layout! Learn more

10-Day Weather Forecast

Advertisements
Track Severe Weather on mobile